sensor_id;sensor_type;location;lat;lon;timestamp;temperature;humidity
72814;DHT22;60945;48.516;-2.768;2023-04-15T00:00:29;9.50;68.70
72814;DHT22;60945;48.516;-2.768;2023-04-15T00:02:55;9.70;68.40
72814;DHT22;60945;48.516;-2.768;2023-04-15T00:05:21;9.70;67.80
72814;DHT22;60945;48.516;-2.768;2023-04-15T00:07:46;9.60;68.50
72814;DHT22;60945;48.516;-2.768;2023-04-15T00:10:12;9.60;68.00
72814;DHT22;60945;48.516;-2.768;2023-04-15T00:12:39;9.60;68.00
72814;DHT22;60945;48.516;-2.768;2023-04-15T00:15:06;9.60;68.40
72814;DHT22;60945;48.516;-2.768;2023-04-15T00:17:34;9.50;68.80
72814;DHT22;60945;48.516;-2.768;2023-04-15T00:20:02;9.50;67.90
72814;DHT22;60945;48.516;-2.768;2023-04-15T00:22:30;9.60;68.30
72814;DHT22;60945;48.516;-2.768;2023-04-15T00:24:57;9.40;67.80
72814;DHT22;60945;48.516;-2.768;2023-04-15T00:27:22;9.30;68.70
72814;DHT22;60945;48.516;-2.768;2023-04-15T00:29:48;9.30;69.30
72814;DHT22;60945;48.516;-2.768;2023-04-15T00:32:14;9.20;69.90
72814;DHT22;60945;48.516;-2.768;2023-04-15T00:34:40;9.20;70.60
72814;DHT22;60945;48.516;-2.768;2023-04-15T00:37:06;9.20;70.60
72814;DHT22;60945;48.516;-2.768;2023-04-15T00:39:31;9.10;70.80
72814;DHT22;60945;48.516;-2.768;2023-04-15T00:41:57;9.10;69.90
72814;DHT22;60945;48.516;-2.768;2023-04-15T00:44:23;9.20;69.60
72814;DHT22;60945;48.516;-2.768;2023-04-15T00:46:50;9.30;69.20
72814;DHT22;60945;48.516;-2.768;2023-04-15T00:49:16;9.20;69.40
72814;DHT22;60945;48.516;-2.768;2023-04-15T00:51:42;9.20;69.40
72814;DHT22;60945;48.516;-2.768;2023-04-15T00:54:09;9.20;70.40
72814;DHT22;60945;48.516;-2.768;2023-04-15T00:56:36;9.10;70.80
72814;DHT22;60945;48.516;-2.768;2023-04-15T00:59:05;9.10;71.20
72814;DHT22;60945;48.516;-2.768;2023-04-15T01:01:36;9.00;71.30
72814;DHT22;60945;48.516;-2.768;2023-04-15T01:04:03;9.00;71.00
72814;DHT22;60945;48.516;-2.768;2023-04-15T01:06:29;9.00;71.00
72814;DHT22;60945;48.516;-2.768;2023-04-15T01:09:00;9.00;71.20
72814;DHT22;60945;48.516;-2.768;2023-04-15T01:11:26;8.90;70.80
72814;DHT22;60945;48.516;-2.768;2023-04-15T01:13:52;8.90;71.20
72814;DHT22;60945;48.516;-2.768;2023-04-15T01:16:19;8.90;71.10
72814;DHT22;60945;48.516;-2.768;2023-04-15T01:18:45;9.00;70.60
72814;DHT22;60945;48.516;-2.768;2023-04-15T01:21:11;8.80;72.00
72814;DHT22;60945;48.516;-2.768;2023-04-15T01:23:38;8.80;71.40
72814;DHT22;60945;48.516;-2.768;2023-04-15T01:26:05;8.70;72.10
72814;DHT22;60945;48.516;-2.768;2023-04-15T01:28:31;8.60;72.40
72814;DHT22;60945;48.516;-2.768;2023-04-15T01:31:09;8.60;72.10
72814;DHT22;60945;48.516;-2.768;2023-04-15T01:33:36;8.70;71.80
72814;DHT22;60945;48.516;-2.768;2023-04-15T01:36:03;8.60;72.20
72814;DHT22;60945;48.516;-2.768;2023-04-15T01:38:30;8.60;72.50
72814;DHT22;60945;48.516;-2.768;2023-04-15T01:40:56;8.60;72.40
72814;DHT22;60945;48.516;-2.768;2023-04-15T01:43:24;8.40;73.00
72814;DHT22;60945;48.516;-2.768;2023-04-15T01:45:49;8.40;73.50
72814;DHT22;60945;48.516;-2.768;2023-04-15T01:48:15;8.50;73.80
72814;DHT22;60945;48.516;-2.768;2023-04-15T01:50:41;8.40;74.10
72814;DHT22;60945;48.516;-2.768;2023-04-15T01:53:07;8.30;74.60
72814;DHT22;60945;48.516;-2.768;2023-04-15T01:55:34;8.40;74.60
72814;DHT22;60945;48.516;-2.768;2023-04-15T01:57:59;8.30;74.70
72814;DHT22;60945;48.516;-2.768;2023-04-15T02:00:25;8.30;75.30
72814;DHT22;60945;48.516;-2.768;2023-04-15T02:02:51;8.30;75.30
72814;DHT22;60945;48.516;-2.768;2023-04-15T02:05:17;8.40;75.40
72814;DHT22;60945;48.516;-2.768;2023-04-15T02:07:43;8.40;75.20
72814;DHT22;60945;48.516;-2.768;2023-04-15T02:10:09;8.50;75.30
72814;DHT22;60945;48.516;-2.768;2023-04-15T02:12:35;8.40;75.40
72814;DHT22;60945;48.516;-2.768;2023-04-15T02:15:01;8.40;75.50
72814;DHT22;60945;48.516;-2.768;2023-04-15T02:17:27;8.40;75.60
72814;DHT22;60945;48.516;-2.768;2023-04-15T02:19:55;8.30;76.10
72814;DHT22;60945;48.516;-2.768;2023-04-15T02:22:21;8.30;76.10
72814;DHT22;60945;48.516;-2.768;2023-04-15T02:24:46;8.30;76.50
72814;DHT22;60945;48.516;-2.768;2023-04-15T02:27:15;8.30;76.30
72814;DHT22;60945;48.516;-2.768;2023-04-15T02:29:45;8.40;76.30
72814;DHT22;60945;48.516;-2.768;2023-04-15T02:32:15;8.30;76.70
72814;DHT22;60945;48.516;-2.768;2023-04-15T02:34:40;8.30;76.60
72814;DHT22;60945;48.516;-2.768;2023-04-15T02:37:11;8.40;76.60
72814;DHT22;60945;48.516;-2.768;2023-04-15T02:39:36;8.30;76.70
72814;DHT22;60945;48.516;-2.768;2023-04-15T02:42:02;8.30;76.90
72814;DHT22;60945;48.516;-2.768;2023-04-15T02:44:29;8.40;76.50
72814;DHT22;60945;48.516;-2.768;2023-04-15T02:46:56;8.30;76.70
72814;DHT22;60945;48.516;-2.768;2023-04-15T02:49:23;8.30;76.90
72814;DHT22;60945;48.516;-2.768;2023-04-15T02:51:49;8.20;77.20
72814;DHT22;60945;48.516;-2.768;2023-04-15T02:54:19;8.20;77.30
72814;DHT22;60945;48.516;-2.768;2023-04-15T02:56:45;8.30;77.20
72814;DHT22;60945;48.516;-2.768;2023-04-15T02:59:11;8.20;77.40
72814;DHT22;60945;48.516;-2.768;2023-04-15T03:01:37;8.30;77.50
72814;DHT22;60945;48.516;-2.768;2023-04-15T03:04:03;8.20;77.80
72814;DHT22;60945;48.516;-2.768;2023-04-15T03:06:28;8.10;78.40
72814;DHT22;60945;48.516;-2.768;2023-04-15T03:08:54;8.10;78.40
72814;DHT22;60945;48.516;-2.768;2023-04-15T03:11:21;8.10;78.10
72814;DHT22;60945;48.516;-2.768;2023-04-15T03:13:47;8.10;78.50
72814;DHT22;60945;48.516;-2.768;2023-04-15T03:16:13;8.10;78.50
72814;DHT22;60945;48.516;-2.768;2023-04-15T03:18:38;8.20;78.10
72814;DHT22;60945;48.516;-2.768;2023-04-15T03:21:04;8.10;78.60
72814;DHT22;60945;48.516;-2.768;2023-04-15T03:23:30;8.10;79.00
72814;DHT22;60945;48.516;-2.768;2023-04-15T03:26:05;8.20;78.50
72814;DHT22;60945;48.516;-2.768;2023-04-15T03:28:31;8.10;78.70
72814;DHT22;60945;48.516;-2.768;2023-04-15T03:30:57;8.10;78.70
72814;DHT22;60945;48.516;-2.768;2023-04-15T03:33:23;8.10;79.00
72814;DHT22;60945;48.516;-2.768;2023-04-15T03:35:50;8.10;78.70
72814;DHT22;60945;48.516;-2.768;2023-04-15T03:38:16;8.10;78.70
72814;DHT22;60945;48.516;-2.768;2023-04-15T03:40:45;8.10;78.90
72814;DHT22;60945;48.516;-2.768;2023-04-15T03:43:11;8.10;79.20
72814;DHT22;60945;48.516;-2.768;2023-04-15T03:45:36;8.10;79.50
72814;DHT22;60945;48.516;-2.768;2023-04-15T03:48:02;8.10;79.30
72814;DHT22;60945;48.516;-2.768;2023-04-15T03:50:28;8.20;79.30
72814;DHT22;60945;48.516;-2.768;2023-04-15T03:52:53;8.10;79.20
72814;DHT22;60945;48.516;-2.768;2023-04-15T03:55:21;8.10;80.00
72814;DHT22;60945;48.516;-2.768;2023-04-15T03:57:47;8.10;79.80
72814;DHT22;60945;48.516;-2.768;2023-04-15T04:00:12;8.10;79.80
72814;DHT22;60945;48.516;-2.768;2023-04-15T04:02:38;8.10;79.80
72814;DHT22;60945;48.516;-2.768;2023-04-15T04:05:04;8.20;79.80
72814;DHT22;60945;48.516;-2.768;2023-04-15T04:07:29;8.20;79.70
72814;DHT22;60945;48.516;-2.768;2023-04-15T04:09:58;8.20;80.20
72814;DHT22;60945;48.516;-2.768;2023-04-15T04:12:23;8.20;80.20
72814;DHT22;60945;48.516;-2.768;2023-04-15T04:14:49;8.30;80.20
72814;DHT22;60945;48.516;-2.768;2023-04-15T04:17:15;8.40;79.80
72814;DHT22;60945;48.516;-2.768;2023-04-15T04:19:40;8.40;79.90
72814;DHT22;60945;48.516;-2.768;2023-04-15T04:22:06;8.40;79.90
72814;DHT22;60945;48.516;-2.768;2023-04-15T04:24:31;8.30;80.10
72814;DHT22;60945;48.516;-2.768;2023-04-15T04:26:57;8.40;80.20
72814;DHT22;60945;48.516;-2.768;2023-04-15T04:29:23;8.40;80.10
72814;DHT22;60945;48.516;-2.768;2023-04-15T04:31:49;8.40;80.10
72814;DHT22;60945;48.516;-2.768;2023-04-15T04:34:15;8.30;80.70
72814;DHT22;60945;48.516;-2.768;2023-04-15T04:36:43;8.40;80.80
72814;DHT22;60945;48.516;-2.768;2023-04-15T04:39:09;8.40;80.50
72814;DHT22;60945;48.516;-2.768;2023-04-15T04:41:34;8.40;80.70
72814;DHT22;60945;48.516;-2.768;2023-04-15T04:44:00;8.30;81.00
72814;DHT22;60945;48.516;-2.768;2023-04-15T04:46:26;8.30;81.40
72814;DHT22;60945;48.516;-2.768;2023-04-15T04:48:52;8.40;81.20
72814;DHT22;60945;48.516;-2.768;2023-04-15T04:51:17;8.40;81.50
72814;DHT22;60945;48.516;-2.768;2023-04-15T04:53:43;8.50;81.70
72814;DHT22;60945;48.516;-2.768;2023-04-15T04:56:09;8.50;82.00
72814;DHT22;60945;48.516;-2.768;2023-04-15T04:58:37;8.50;81.60
72814;DHT22;60945;48.516;-2.768;2023-04-15T05:01:03;8.50;81.70
72814;DHT22;60945;48.516;-2.768;2023-04-15T05:03:29;8.40;82.20
72814;DHT22;60945;48.516;-2.768;2023-04-15T05:05:54;8.50;82.60
72814;DHT22;60945;48.516;-2.768;2023-04-15T05:08:20;8.40;82.70
72814;DHT22;60945;48.516;-2.768;2023-04-15T05:10:46;8.40;82.90
72814;DHT22;60945;48.516;-2.768;2023-04-15T05:13:12;8.50;82.90
72814;DHT22;60945;48.516;-2.768;2023-04-15T05:15:37;8.60;82.60
72814;DHT22;60945;48.516;-2.768;2023-04-15T05:18:05;8.50;82.60
72814;DHT22;60945;48.516;-2.768;2023-04-15T05:20:31;8.60;82.30
72814;DHT22;60945;48.516;-2.768;2023-04-15T05:22:57;8.50;82.90
72814;DHT22;60945;48.516;-2.768;2023-04-15T05:25:25;8.60;83.10
72814;DHT22;60945;48.516;-2.768;2023-04-15T05:27:50;8.60;83.10
72814;DHT22;60945;48.516;-2.768;2023-04-15T05:30:19;8.60;82.90
72814;DHT22;60945;48.516;-2.768;2023-04-15T05:32:45;8.60;83.10
72814;DHT22;60945;48.516;-2.768;2023-04-15T05:35:10;8.70;82.90
72814;DHT22;60945;48.516;-2.768;2023-04-15T05:37:39;8.70;83.10
72814;DHT22;60945;48.516;-2.768;2023-04-15T05:40:05;8.80;82.90
72814;DHT22;60945;48.516;-2.768;2023-04-15T05:42:31;8.90;82.40
72814;DHT22;60945;48.516;-2.768;2023-04-15T05:44:56;8.90;81.80
72814;DHT22;60945;48.516;-2.768;2023-04-15T05:47:22;8.90;81.80
72814;DHT22;60945;48.516;-2.768;2023-04-15T05:49:48;8.90;81.90
72814;DHT22;60945;48.516;-2.768;2023-04-15T05:52:13;8.90;81.80
72814;DHT22;60945;48.516;-2.768;2023-04-15T05:54:39;8.90;82.30
72814;DHT22;60945;48.516;-2.768;2023-04-15T05:57:05;8.90;82.60
72814;DHT22;60945;48.516;-2.768;2023-04-15T05:59:31;9.00;82.30
72814;DHT22;60945;48.516;-2.768;2023-04-15T06:01:57;8.90;83.10
72814;DHT22;60945;48.516;-2.768;2023-04-15T06:04:23;9.00;83.10
72814;DHT22;60945;48.516;-2.768;2023-04-15T06:06:48;9.10;82.90
72814;DHT22;60945;48.516;-2.768;2023-04-15T06:09:14;9.20;82.70
72814;DHT22;60945;48.516;-2.768;2023-04-15T06:11:40;9.30;82.20
72814;DHT22;60945;48.516;-2.768;2023-04-15T06:14:06;9.40;82.00
72814;DHT22;60945;48.516;-2.768;2023-04-15T06:16:31;9.40;81.80
72814;DHT22;60945;48.516;-2.768;2023-04-15T06:18:57;9.50;82.00
72814;DHT22;60945;48.516;-2.768;2023-04-15T06:21:23;9.40;82.10
72814;DHT22;60945;48.516;-2.768;2023-04-15T06:23:48;9.40;82.60
72814;DHT22;60945;48.516;-2.768;2023-04-15T06:26:14;9.60;82.00
72814;DHT22;60945;48.516;-2.768;2023-04-15T06:28:39;9.80;81.20
72814;DHT22;60945;48.516;-2.768;2023-04-15T06:31:05;9.80;81.20
72814;DHT22;60945;48.516;-2.768;2023-04-15T06:33:31;9.80;81.40
72814;DHT22;60945;48.516;-2.768;2023-04-15T06:35:57;9.90;81.20
72814;DHT22;60945;48.516;-2.768;2023-04-15T06:38:22;9.90;80.90
72814;DHT22;60945;48.516;-2.768;2023-04-15T06:40:48;10.00;80.80
72814;DHT22;60945;48.516;-2.768;2023-04-15T06:43:14;10.00;80.80
72814;DHT22;60945;48.516;-2.768;2023-04-15T06:45:39;10.20;80.40
72814;DHT22;60945;48.516;-2.768;2023-04-15T06:48:05;10.30;79.80
72814;DHT22;60945;48.516;-2.768;2023-04-15T06:50:31;10.40;78.80
72814;DHT22;60945;48.516;-2.768;2023-04-15T06:52:57;10.50;78.40
72814;DHT22;60945;48.516;-2.768;2023-04-15T06:55:22;10.70;78.10
72814;DHT22;60945;48.516;-2.768;2023-04-15T06:57:48;10.60;78.90
72814;DHT22;60945;48.516;-2.768;2023-04-15T07:00:14;10.60;78.60
72814;DHT22;60945;48.516;-2.768;2023-04-15T07:02:40;10.80;78.10
72814;DHT22;60945;48.516;-2.768;2023-04-15T07:05:06;10.80;78.20
72814;DHT22;60945;48.516;-2.768;2023-04-15T07:07:31;10.90;78.00
72814;DHT22;60945;48.516;-2.768;2023-04-15T07:09:57;11.00;77.90
72814;DHT22;60945;48.516;-2.768;2023-04-15T07:12:23;11.20;77.00
72814;DHT22;60945;48.516;-2.768;2023-04-15T07:14:49;11.30;76.70
72814;DHT22;60945;48.516;-2.768;2023-04-15T07:17:14;11.40;76.30
72814;DHT22;60945;48.516;-2.768;2023-04-15T07:19:40;11.60;74.70
72814;DHT22;60945;48.516;-2.768;2023-04-15T07:22:06;11.90;73.70
72814;DHT22;60945;48.516;-2.768;2023-04-15T07:24:32;12.00;73.80
72814;DHT22;60945;48.516;-2.768;2023-04-15T07:26:58;12.30;72.20
72814;DHT22;60945;48.516;-2.768;2023-04-15T07:29:24;12.60;71.00
72814;DHT22;60945;48.516;-2.768;2023-04-15T07:31:49;12.80;70.80
72814;DHT22;60945;48.516;-2.768;2023-04-15T07:34:16;13.00;69.70
72814;DHT22;60945;48.516;-2.768;2023-04-15T07:36:41;13.20;69.20
72814;DHT22;60945;48.516;-2.768;2023-04-15T07:39:07;13.30;68.70
72814;DHT22;60945;48.516;-2.768;2023-04-15T07:41:33;13.60;67.40
72814;DHT22;60945;48.516;-2.768;2023-04-15T07:43:59;13.90;66.40
72814;DHT22;60945;48.516;-2.768;2023-04-15T07:46:25;13.70;67.00
72814;DHT22;60945;48.516;-2.768;2023-04-15T07:48:52;13.90;66.10
72814;DHT22;60945;48.516;-2.768;2023-04-15T07:51:18;14.00;66.10
72814;DHT22;60945;48.516;-2.768;2023-04-15T07:53:45;14.10;65.50
72814;DHT22;60945;48.516;-2.768;2023-04-15T07:56:11;14.20;65.50
72814;DHT22;60945;48.516;-2.768;2023-04-15T07:58:37;14.60;63.70
72814;DHT22;60945;48.516;-2.768;2023-04-15T08:01:03;14.70;63.30
72814;DHT22;60945;48.516;-2.768;2023-04-15T08:03:29;14.80;62.80
72814;DHT22;60945;48.516;-2.768;2023-04-15T08:05:56;14.90;62.10
72814;DHT22;60945;48.516;-2.768;2023-04-15T08:08:21;14.90;61.30
72814;DHT22;60945;48.516;-2.768;2023-04-15T08:10:47;15.50;60.90
72814;DHT22;60945;48.516;-2.768;2023-04-15T08:13:15;15.60;59.40
72814;DHT22;60945;48.516;-2.768;2023-04-15T08:15:41;16.00;58.30
72814;DHT22;60945;48.516;-2.768;2023-04-15T08:18:07;16.30;56.20
72814;DHT22;60945;48.516;-2.768;2023-04-15T08:20:34;16.10;56.70
72814;DHT22;60945;48.516;-2.768;2023-04-15T08:23:00;15.70;56.50
72814;DHT22;60945;48.516;-2.768;2023-04-15T08:25:25;15.70;55.80
72814;DHT22;60945;48.516;-2.768;2023-04-15T08:27:54;15.30;56.60
72814;DHT22;60945;48.516;-2.768;2023-04-15T08:30:20;15.50;56.50
72814;DHT22;60945;48.516;-2.768;2023-04-15T08:32:46;16.50;54.20
72814;DHT22;60945;48.516;-2.768;2023-04-15T08:35:12;17.40;51.90
72814;DHT22;60945;48.516;-2.768;2023-04-15T08:37:38;18.10;47.80
72814;DHT22;60945;48.516;-2.768;2023-04-15T08:40:04;17.90;45.70
72814;DHT22;60945;48.516;-2.768;2023-04-15T08:42:31;17.70;47.00
72814;DHT22;60945;48.516;-2.768;2023-04-15T08:45:03;17.60;47.10
72814;DHT22;60945;48.516;-2.768;2023-04-15T08:47:30;17.90;47.80
72814;DHT22;60945;48.516;-2.768;2023-04-15T08:49:58;18.20;46.50
72814;DHT22;60945;48.516;-2.768;2023-04-15T08:52:25;17.40;47.00
72814;DHT22;60945;48.516;-2.768;2023-04-15T08:54:54;17.20;48.10
72814;DHT22;60945;48.516;-2.768;2023-04-15T08:57:32;17.70;47.30
72814;DHT22;60945;48.516;-2.768;2023-04-15T08:59:58;17.40;47.50
72814;DHT22;60945;48.516;-2.768;2023-04-15T09:02:26;16.60;48.00
72814;DHT22;60945;48.516;-2.768;2023-04-15T09:04:52;16.40;48.40
72814;DHT22;60945;48.516;-2.768;2023-04-15T09:07:18;16.30;47.60
72814;DHT22;60945;48.516;-2.768;2023-04-15T09:09:43;15.90;48.80
72814;DHT22;60945;48.516;-2.768;2023-04-15T09:12:10;15.60;47.90
72814;DHT22;60945;48.516;-2.768;2023-04-15T09:14:38;15.30;48.20
72814;DHT22;60945;48.516;-2.768;2023-04-15T09:17:05;15.80;47.20
72814;DHT22;60945;48.516;-2.768;2023-04-15T09:19:34;16.30;46.30
72814;DHT22;60945;48.516;-2.768;2023-04-15T09:21:59;15.80;47.10
72814;DHT22;60945;48.516;-2.768;2023-04-15T09:24:35;15.90;48.40
72814;DHT22;60945;48.516;-2.768;2023-04-15T09:27:02;16.10;49.10
72814;DHT22;60945;48.516;-2.768;2023-04-15T09:29:28;16.10;50.70
72814;DHT22;60945;48.516;-2.768;2023-04-15T09:31:53;16.40;51.00
72814;DHT22;60945;48.516;-2.768;2023-04-15T09:34:19;16.70;49.40
72814;DHT22;60945;48.516;-2.768;2023-04-15T09:36:55;16.30;50.00
72814;DHT22;60945;48.516;-2.768;2023-04-15T09:39:21;16.80;49.40
72814;DHT22;60945;48.516;-2.768;2023-04-15T09:42:08;17.10;47.70
72814;DHT22;60945;48.516;-2.768;2023-04-15T09:44:34;18.00;45.70
72814;DHT22;60945;48.516;-2.768;2023-04-15T09:47:00;18.30;45.00
72814;DHT22;60945;48.516;-2.768;2023-04-15T09:49:26;17.90;43.30
72814;DHT22;60945;48.516;-2.768;2023-04-15T09:51:59;18.10;42.80
72814;DHT22;60945;48.516;-2.768;2023-04-15T09:54:35;19.00;40.80
72814;DHT22;60945;48.516;-2.768;2023-04-15T09:57:08;21.50;37.90
72814;DHT22;60945;48.516;-2.768;2023-04-15T09:59:34;24.00;34.00
72814;DHT22;60945;48.516;-2.768;2023-04-15T10:02:03;25.80;31.60
72814;DHT22;60945;48.516;-2.768;2023-04-15T10:04:40;27.60;29.40
72814;DHT22;60945;48.516;-2.768;2023-04-15T10:07:07;29.50;26.10
72814;DHT22;60945;48.516;-2.768;2023-04-15T10:09:35;26.80;29.90
72814;DHT22;60945;48.516;-2.768;2023-04-15T10:12:03;24.90;31.40
72814;DHT22;60945;48.516;-2.768;2023-04-15T10:14:32;25.40;32.70
72814;DHT22;60945;48.516;-2.768;2023-04-15T10:17:00;28.00;29.70
72814;DHT22;60945;48.516;-2.768;2023-04-15T10:19:27;29.90;28.00
72814;DHT22;60945;48.516;-2.768;2023-04-15T10:21:55;29.10;28.30
72814;DHT22;60945;48.516;-2.768;2023-04-15T10:24:22;26.60;29.00
72814;DHT22;60945;48.516;-2.768;2023-04-15T10:26:50;25.50;31.70
72814;DHT22;60945;48.516;-2.768;2023-04-15T10:29:16;26.70;29.80
72814;DHT22;60945;48.516;-2.768;2023-04-15T10:31:42;29.20;25.50
72814;DHT22;60945;48.516;-2.768;2023-04-15T10:34:09;29.80;24.60
72814;DHT22;60945;48.516;-2.768;2023-04-15T10:36:36;29.40;24.00
72814;DHT22;60945;48.516;-2.768;2023-04-15T10:42:07;23.80;29.70
72814;DHT22;60945;48.516;-2.768;2023-04-15T10:44:34;26.90;28.20
72814;DHT22;60945;48.516;-2.768;2023-04-15T10:47:05;29.00;25.70
72814;DHT22;60945;48.516;-2.768;2023-04-15T10:49:31;29.40;25.50
72814;DHT22;60945;48.516;-2.768;2023-04-15T10:52:01;29.90;25.40
72814;DHT22;60945;48.516;-2.768;2023-04-15T10:59:38;30.40;24.70
72814;DHT22;60945;48.516;-2.768;2023-04-15T11:05:09;32.40;23.00
72814;DHT22;60945;48.516;-2.768;2023-04-15T11:07:51;32.00;22.60
72814;DHT22;60945;48.516;-2.768;2023-04-15T11:12:44;30.80;23.30
72814;DHT22;60945;48.516;-2.768;2023-04-15T11:15:36;33.00;22.60
72814;DHT22;60945;48.516;-2.768;2023-04-15T11:18:24;33.20;23.00
72814;DHT22;60945;48.516;-2.768;2023-04-15T11:20:52;32.90;23.30
72814;DHT22;60945;48.516;-2.768;2023-04-15T11:23:41;34.30;21.40
72814;DHT22;60945;48.516;-2.768;2023-04-15T11:26:16;34.80;20.60
72814;DHT22;60945;48.516;-2.768;2023-04-15T11:28:43;34.90;20.30
72814;DHT22;60945;48.516;-2.768;2023-04-15T11:31:10;35.70;20.10
72814;DHT22;60945;48.516;-2.768;2023-04-15T11:33:36;36.00;19.90
72814;DHT22;60945;48.516;-2.768;2023-04-15T11:36:02;37.00;19.30
72814;DHT22;60945;48.516;-2.768;2023-04-15T11:38:28;36.60;20.30
72814;DHT22;60945;48.516;-2.768;2023-04-15T11:40:54;37.40;19.40
72814;DHT22;60945;48.516;-2.768;2023-04-15T11:43:21;37.10;19.90
72814;DHT22;60945;48.516;-2.768;2023-04-15T11:48:13;36.10;21.70
72814;DHT22;60945;48.516;-2.768;2023-04-15T11:50:39;35.40;22.40
72814;DHT22;60945;48.516;-2.768;2023-04-15T11:53:07;36.30;21.10
72814;DHT22;60945;48.516;-2.768;2023-04-15T11:55:47;35.40;21.50
72814;DHT22;60945;48.516;-2.768;2023-04-15T11:58:14;36.40;21.20
72814;DHT22;60945;48.516;-2.768;2023-04-15T12:00:44;36.70;20.50
72814;DHT22;60945;48.516;-2.768;2023-04-15T12:03:17;38.30;19.60
72814;DHT22;60945;48.516;-2.768;2023-04-15T12:11:50;40.40;18.00
72814;DHT22;60945;48.516;-2.768;2023-04-15T12:14:26;40.60;17.80
72814;DHT22;60945;48.516;-2.768;2023-04-15T12:17:05;39.20;18.10
72814;DHT22;60945;48.516;-2.768;2023-04-15T12:19:38;39.60;18.30
72814;DHT22;60945;48.516;-2.768;2023-04-15T12:22:08;39.10;18.20
72814;DHT22;60945;48.516;-2.768;2023-04-15T12:24:38;38.60;18.20
72814;DHT22;60945;48.516;-2.768;2023-04-15T12:27:05;37.40;19.30
72814;DHT22;60945;48.516;-2.768;2023-04-15T12:29:32;37.50;18.70
72814;DHT22;60945;48.516;-2.768;2023-04-15T12:32:07;37.70;18.70
72814;DHT22;60945;48.516;-2.768;2023-04-15T12:34:35;38.10;18.80
72814;DHT22;60945;48.516;-2.768;2023-04-15T12:37:04;39.70;17.60
72814;DHT22;60945;48.516;-2.768;2023-04-15T12:39:37;39.60;17.60
72814;DHT22;60945;48.516;-2.768;2023-04-15T12:42:04;38.00;19.00
72814;DHT22;60945;48.516;-2.768;2023-04-15T12:44:30;39.70;17.60
72814;DHT22;60945;48.516;-2.768;2023-04-15T12:46:56;41.40;17.30
72814;DHT22;60945;48.516;-2.768;2023-04-15T12:49:22;42.10;16.60
72814;DHT22;60945;48.516;-2.768;2023-04-15T12:51:50;41.50;15.80
72814;DHT22;60945;48.516;-2.768;2023-04-15T12:54:16;41.20;16.60
72814;DHT22;60945;48.516;-2.768;2023-04-15T12:56:42;41.50;16.40
72814;DHT22;60945;48.516;-2.768;2023-04-15T12:59:08;41.40;16.80
72814;DHT22;60945;48.516;-2.768;2023-04-15T13:01:34;41.20;16.70
72814;DHT22;60945;48.516;-2.768;2023-04-15T13:04:00;39.70;17.80
72814;DHT22;60945;48.516;-2.768;2023-04-15T13:06:26;41.40;16.80
72814;DHT22;60945;48.516;-2.768;2023-04-15T13:08:53;40.90;17.40
72814;DHT22;60945;48.516;-2.768;2023-04-15T13:11:21;37.00;18.80
72814;DHT22;60945;48.516;-2.768;2023-04-15T13:13:47;37.30;20.00
72814;DHT22;60945;48.516;-2.768;2023-04-15T13:16:13;40.50;18.30
72814;DHT22;60945;48.516;-2.768;2023-04-15T13:18:38;40.80;16.90
72814;DHT22;60945;48.516;-2.768;2023-04-15T13:21:04;40.10;17.20
72814;DHT22;60945;48.516;-2.768;2023-04-15T13:23:32;37.90;17.90
72814;DHT22;60945;48.516;-2.768;2023-04-15T13:25:58;36.30;19.80
72814;DHT22;60945;48.516;-2.768;2023-04-15T13:28:23;38.10;19.00
72814;DHT22;60945;48.516;-2.768;2023-04-15T13:30:49;37.10;20.00
72814;DHT22;60945;48.516;-2.768;2023-04-15T13:33:16;40.70;17.50
72814;DHT22;60945;48.516;-2.768;2023-04-15T13:35:42;40.40;17.10
72814;DHT22;60945;48.516;-2.768;2023-04-15T13:38:08;41.60;16.80
72814;DHT22;60945;48.516;-2.768;2023-04-15T13:40:33;40.20;17.50
72814;DHT22;60945;48.516;-2.768;2023-04-15T13:42:59;40.70;16.40
72814;DHT22;60945;48.516;-2.768;2023-04-15T13:45:25;39.50;16.30
72814;DHT22;60945;48.516;-2.768;2023-04-15T13:47:51;37.90;18.20
72814;DHT22;60945;48.516;-2.768;2023-04-15T13:50:22;38.60;18.80
72814;DHT22;60945;48.516;-2.768;2023-04-15T13:52:47;33.90;20.70
72814;DHT22;60945;48.516;-2.768;2023-04-15T13:55:13;38.10;19.30
72814;DHT22;60945;48.516;-2.768;2023-04-15T13:57:39;34.90;20.70
72814;DHT22;60945;48.516;-2.768;2023-04-15T14:00:05;38.90;19.40
72814;DHT22;60945;48.516;-2.768;2023-04-15T14:02:31;39.70;17.70
72814;DHT22;60945;48.516;-2.768;2023-04-15T14:04:56;40.20;18.10
72814;DHT22;60945;48.516;-2.768;2023-04-15T14:07:22;40.30;18.60
72814;DHT22;60945;48.516;-2.768;2023-04-15T14:09:48;40.40;19.60
72814;DHT22;60945;48.516;-2.768;2023-04-15T14:12:17;39.20;20.50
72814;DHT22;60945;48.516;-2.768;2023-04-15T14:14:43;37.70;21.20
72814;DHT22;60945;48.516;-2.768;2023-04-15T14:17:10;37.70;20.90
72814;DHT22;60945;48.516;-2.768;2023-04-15T14:19:35;39.60;19.90
72814;DHT22;60945;48.516;-2.768;2023-04-15T14:22:01;39.40;19.10
72814;DHT22;60945;48.516;-2.768;2023-04-15T14:24:27;38.30;19.90
72814;DHT22;60945;48.516;-2.768;2023-04-15T14:26:53;40.90;18.50
72814;DHT22;60945;48.516;-2.768;2023-04-15T14:29:19;42.50;17.70
72814;DHT22;60945;48.516;-2.768;2023-04-15T14:31:45;41.00;18.50
72814;DHT22;60945;48.516;-2.768;2023-04-15T14:34:10;39.80;19.10
72814;DHT22;60945;48.516;-2.768;2023-04-15T14:36:36;38.80;20.50
72814;DHT22;60945;48.516;-2.768;2023-04-15T14:39:02;40.00;19.30
72814;DHT22;60945;48.516;-2.768;2023-04-15T14:41:28;40.80;18.00
72814;DHT22;60945;48.516;-2.768;2023-04-15T14:43:54;38.80;19.50
72814;DHT22;60945;48.516;-2.768;2023-04-15T14:46:21;39.40;19.20
72814;DHT22;60945;48.516;-2.768;2023-04-15T14:48:47;39.00;19.40
72814;DHT22;60945;48.516;-2.768;2023-04-15T14:51:12;38.40;19.90
72814;DHT22;60945;48.516;-2.768;2023-04-15T14:53:38;39.40;19.90
72814;DHT22;60945;48.516;-2.768;2023-04-15T14:56:04;38.40;19.40
72814;DHT22;60945;48.516;-2.768;2023-04-15T14:58:30;38.30;19.80
72814;DHT22;60945;48.516;-2.768;2023-04-15T15:00:57;39.50;18.90
72814;DHT22;60945;48.516;-2.768;2023-04-15T15:03:22;37.60;19.60
72814;DHT22;60945;48.516;-2.768;2023-04-15T15:05:48;36.50;20.00
72814;DHT22;60945;48.516;-2.768;2023-04-15T15:08:13;37.80;19.30
72814;DHT22;60945;48.516;-2.768;2023-04-15T15:10:39;38.40;18.70
72814;DHT22;60945;48.516;-2.768;2023-04-15T15:13:07;38.00;17.60
72814;DHT22;60945;48.516;-2.768;2023-04-15T15:15:36;36.50;18.60
72814;DHT22;60945;48.516;-2.768;2023-04-15T15:18:02;33.70;19.00
72814;DHT22;60945;48.516;-2.768;2023-04-15T15:20:28;30.90;21.60
72814;DHT22;60945;48.516;-2.768;2023-04-15T15:22:54;29.10;23.00
72814;DHT22;60945;48.516;-2.768;2023-04-15T15:25:20;27.30;25.20
72814;DHT22;60945;48.516;-2.768;2023-04-15T15:27:46;26.70;26.30
72814;DHT22;60945;48.516;-2.768;2023-04-15T15:30:12;27.60;26.30
72814;DHT22;60945;48.516;-2.768;2023-04-15T15:32:42;27.60;25.90
72814;DHT22;60945;48.516;-2.768;2023-04-15T15:35:08;26.00;26.00
72814;DHT22;60945;48.516;-2.768;2023-04-15T15:37:34;24.30;27.90
72814;DHT22;60945;48.516;-2.768;2023-04-15T15:40:02;24.50;28.90
72814;DHT22;60945;48.516;-2.768;2023-04-15T15:42:30;22.80;29.10